Terminal Aerodrome Forecast
Issued by NWS Houston/Galveston, TX

Home | Current Version | Previous Version | Text Only | Print | Product List | Glossary On
Versions: 1 2 3 4 5 6 7 8 9 10 11 12 13 14 15 16 17 18 19 20 21 22 23 24 25 26 27 28 29 30 31 32 33 34 35 36 37 38 39 40
000
FTUS44 KHGX 180524
TAFGLS
TAF
KGLS 180524Z 1806/1906 VRB06KT P6SM SCT250
     FM180900 VRB05KT P6SM VCSH SCT020 BKN250
      TEMPO 1809/1812 SHRA BKN015
     FM181200 VRB06KT P6SM VCSH SCT015 SCT060 BKN250
     FM181500 08009KT P6SM VCTS SCT020CB SCT100 BKN250=

USA.gov is the U.S. government's official web portal to all federal, state and local government web resources and services.